createdAt,value
2022-09-01T00:03:00.298Z,5.88
2022-09-01T00:08:02.082Z,6.18
2022-09-01T00:13:07.056Z,5.85
2022-09-01T00:18:08.766Z,6.25
2022-09-01T00:23:10.441Z,6.82
2022-09-01T00:28:12.118Z,5.65
2022-09-01T00:33:14.142Z,5.60
2022-09-01T00:38:16.490Z,5.35
2022-09-01T00:43:23.599Z,5.80
2022-09-01T00:48:26.050Z,5.75
2022-09-01T00:53:28.372Z,5.05
2022-09-01T00:58:31.596Z,5.80
2022-09-01T01:03:34.172Z,5.72
2022-09-01T01:08:41.878Z,6.03
2022-09-01T01:13:49.475Z,5.50
2022-09-01T01:18:52.707Z,5.28
2022-09-01T01:24:06.791Z,5.03
2022-09-01T01:29:10.218Z,5.43
2022-09-01T01:34:12.224Z,5.90
2022-09-01T01:39:19.619Z,5.00
2022-09-01T01:44:27.955Z,5.47
2022-09-01T01:49:32.695Z,4.93
2022-09-01T01:54:34.603Z,5.07
2022-09-01T01:59:36.295Z,5.68
2022-09-01T02:04:40.158Z,5.32
2022-09-01T02:09:48.170Z,6.00
2022-09-01T02:14:50.417Z,4.95
2022-09-01T02:19:57.531Z,4.57
2022-09-01T02:25:01.029Z,4.80
2022-09-01T02:30:04.272Z,5.15
2022-09-01T02:35:10.101Z,4.93
2022-09-01T02:40:11.857Z,5.35
2022-09-01T02:45:16.253Z,4.97
2022-09-01T02:50:19.892Z,4.60
2022-09-01T02:55:22.936Z,4.95
2022-09-01T03:00:33.523Z,5.25
2022-09-01T03:05:36.232Z,5.45
2022-09-01T03:10:41.732Z,5.95
2022-09-01T03:15:44.778Z,6.10
2022-09-01T03:20:47.304Z,5.68
2022-09-01T03:25:49.204Z,5.50
2022-09-01T03:30:53.681Z,4.43
2022-09-01T03:35:56.681Z,5.15
2022-09-01T03:41:01.931Z,5.20
2022-09-01T03:46:04.949Z,5.68
2022-09-01T03:51:06.824Z,4.22
2022-09-01T03:56:09.116Z,4.28
2022-09-01T04:01:13.729Z,4.75
2022-09-01T04:06:18.641Z,5.28
2022-09-01T04:11:23.669Z,5.05
2022-09-01T04:16:51.054Z,4.97
2022-09-01T04:21:55.825Z,5.53
2022-09-01T04:27:02.330Z,4.82
2022-09-01T04:32:07.468Z,5.40
2022-09-01T04:37:15.019Z,6.03
2022-09-01T04:42:19.058Z,6.15
2022-09-01T04:47:31.626Z,4.95
2022-09-01T04:52:40.412Z,5.10
2022-09-01T04:57:47.931Z,5.80
2022-09-01T05:03:05.080Z,4.90
2022-09-01T05:08:25.322Z,5.50
2022-09-01T05:13:33.516Z,5.10
2022-09-01T05:18:35.538Z,4.28
2022-09-01T05:23:40.533Z,5.20
2022-09-01T05:28:45.003Z,5.18
2022-09-01T05:33:48.458Z,5.10
2022-09-01T05:38:52.447Z,5.55
2022-09-01T05:43:59.934Z,5.05
2022-09-01T05:49:02.701Z,5.30
2022-09-01T05:54:08.138Z,4.82
2022-09-01T05:59:28.751Z,5.55
2022-09-01T06:04:44.345Z,5.35
2022-09-01T06:09:53.703Z,5.40
2022-09-01T06:14:58.406Z,5.53
2022-09-01T06:20:00.967Z,5.00
2022-09-01T06:25:06.718Z,4.25
2022-09-01T06:30:23.516Z,4.97
2022-09-01T06:35:42.152Z,3.67
2022-09-01T06:40:45.344Z,3.90
2022-09-01T06:45:54.357Z,4.35
2022-09-01T06:51:21.958Z,4.65
2022-09-01T06:56:32.204Z,5.28
2022-09-01T07:01:35.410Z,3.78
2022-09-01T07:12:25.679Z,4.70
2022-09-01T07:17:30.674Z,5.07
2022-09-01T07:23:02.620Z,4.53
2022-09-01T07:27:56.295Z,4.95
2022-09-01T07:43:53.459Z,3.25
2022-09-01T07:49:30.138Z,3.63
2022-09-01T07:54:37.412Z,3.85
2022-09-01T07:59:39.322Z,3.97
2022-09-01T08:04:50.833Z,3.78
2022-09-01T08:09:55.950Z,3.20
2022-09-01T08:15:37.973Z,3.15
2022-09-01T08:20:30.556Z,3.33
2022-09-01T08:25:45.915Z,3.20
2022-09-01T08:30:52.624Z,3.30
2022-09-01T08:35:57.439Z,3.40
2022-09-01T08:41:01.241Z,3.67
2022-09-01T08:46:16.294Z,2.72
2022-09-01T08:51:40.628Z,3.53
2022-09-01T08:56:43.938Z,2.88
2022-09-01T09:01:57.083Z,3.55
2022-09-01T09:07:18.159Z,3.25
2022-09-01T09:12:53.413Z,2.95
2022-09-01T09:18:19.870Z,3.28
2022-09-01T09:23:31.554Z,3.28
2022-09-01T09:28:33.481Z,3.33
2022-09-01T09:33:54.379Z,2.60
2022-09-01T09:39:11.889Z,3.20
2022-09-01T09:44:26.884Z,3.00
2022-09-01T09:49:36.607Z,2.92
2022-09-01T09:55:10.439Z,3.45
2022-09-01T10:00:33.436Z,3.72
2022-09-01T10:05:40.181Z,2.97
2022-09-01T10:10:58.174Z,3.10
2022-09-01T10:16:16.233Z,3.28
2022-09-01T10:21:40.264Z,2.97
2022-09-01T10:26:44.806Z,3.10
2022-09-01T10:31:46.636Z,2.67
2022-09-01T10:36:55.717Z,2.72
2022-09-01T10:42:07.568Z,2.25
2022-09-01T10:47:30.086Z,2.58
2022-09-01T10:52:41.050Z,2.22
2022-09-01T10:57:55.179Z,1.95
2022-09-01T11:08:35.398Z,4.88
2022-09-01T11:13:51.047Z,2.10
2022-09-01T11:18:53.128Z,3.15
2022-09-01T11:24:32.376Z,2.10
2022-09-01T11:29:53.299Z,2.00
2022-09-01T11:34:58.019Z,1.95
2022-09-01T11:40:03.474Z,2.05
2022-09-01T11:45:21.936Z,1.90
2022-09-01T11:50:34.673Z,1.75
2022-09-01T11:55:40.837Z,1.58
2022-09-01T12:00:43.196Z,2.70
2022-09-01T12:05:46.680Z,1.23
2022-09-01T12:10:48.572Z,1.83
2022-09-01T12:16:17.102Z,1.45
2022-09-01T12:21:54.106Z,2.20
2022-09-01T12:27:01.244Z,1.90
2022-09-01T12:32:05.442Z,1.50
2022-09-01T12:37:24.819Z,2.03
2022-09-01T12:42:41.589Z,1.83
2022-09-01T12:47:49.938Z,1.95
2022-09-01T12:52:55.647Z,1.75
2022-09-01T12:58:03.531Z,1.77
2022-09-01T13:03:15.309Z,1.85
2022-09-01T13:08:20.916Z,2.00
2022-09-01T13:13:24.822Z,1.83
2022-09-01T13:18:27.995Z,1.42
2022-09-01T13:23:29.675Z,1.60
2022-09-01T13:28:32.137Z,1.20
2022-09-01T13:34:09.216Z,1.27
2022-09-01T13:38:57.628Z,1.73
2022-09-01T13:43:59.531Z,0.82
2022-09-01T13:49:02.881Z,1.42
2022-09-01T13:54:05.147Z,1.77
2022-09-01T13:59:07.890Z,1.00
2022-09-01T14:04:10.437Z,1.33
2022-09-01T14:09:17.594Z,1.50
2022-09-01T14:14:19.479Z,2.15
2022-09-01T14:19:21.386Z,1.27
2022-09-01T14:24:23.342Z,1.40
2022-09-01T14:29:25.572Z,1.00
2022-09-01T14:34:27.281Z,1.23
2022-09-01T14:39:28.924Z,1.15
2022-09-01T14:44:32.110Z,0.88
2022-09-01T14:49:36.834Z,1.23
2022-09-01T14:54:40.948Z,1.15
2022-09-01T14:59:42.702Z,1.60
2022-09-01T15:04:44.375Z,1.83
2022-09-01T15:09:46.036Z,0.88
2022-09-01T15:14:47.744Z,0.95
2022-09-01T15:19:49.375Z,1.10
2022-09-01T15:24:51.016Z,1.38
2022-09-01T15:29:52.646Z,0.80
2022-09-01T15:34:55.880Z,1.10
2022-09-01T15:39:57.542Z,1.52
2022-09-01T15:44:59.517Z,1.48
2022-09-01T15:50:01.209Z,1.45
2022-09-01T15:55:05.233Z,1.40
2022-09-01T16:00:07.706Z,1.40
2022-09-01T16:05:14.531Z,1.45
2022-09-01T16:10:16.199Z,1.70
2022-09-01T16:15:20.617Z,1.55
2022-09-01T16:20:26.146Z,1.20
2022-09-01T16:25:31.566Z,1.30
2022-09-01T16:30:34.407Z,1.42
2022-09-01T16:36:06.443Z,1.48
2022-09-01T16:41:36.215Z,1.00
2022-09-01T16:46:55.252Z,1.40
2022-09-01T16:52:05.504Z,1.23
2022-09-01T16:57:16.301Z,1.95
2022-09-01T17:02:36.000Z,1.60
2022-09-01T17:07:49.993Z,1.15
2022-09-01T17:12:58.479Z,1.23
2022-09-01T17:18:22.206Z,1.30
2022-09-01T17:23:28.705Z,1.25
2022-09-01T17:28:51.883Z,1.58
2022-09-01T17:34:18.689Z,1.65
2022-09-01T17:39:55.434Z,1.10
2022-09-01T17:45:29.258Z,1.83
2022-09-01T17:56:01.867Z,1.25
2022-09-01T18:01:10.812Z,1.73
2022-09-01T18:06:20.147Z,1.70
2022-09-01T18:11:31.954Z,1.50
2022-09-01T18:16:51.837Z,1.50
2022-09-01T18:21:57.481Z,1.20
2022-09-01T18:27:01.668Z,1.80
2022-09-01T18:32:20.543Z,1.60
2022-09-01T18:37:54.535Z,1.25
2022-09-01T18:43:09.372Z,1.42
2022-09-01T18:48:47.902Z,1.30
2022-09-01T18:54:15.684Z,2.17
2022-09-01T18:59:37.318Z,2.20
2022-09-01T19:04:42.331Z,2.10
2022-09-01T19:09:55.665Z,1.77
2022-09-01T19:15:25.697Z,1.98
2022-09-01T19:20:47.415Z,2.10
2022-09-01T19:25:51.425Z,2.10
2022-09-01T19:31:20.627Z,1.92
2022-09-01T19:36:31.128Z,2.13
2022-09-01T19:41:42.408Z,1.90
2022-09-01T19:46:51.593Z,2.40
2022-09-01T19:52:05.696Z,2.17
2022-09-01T19:57:45.551Z,2.35
2022-09-01T20:03:01.098Z,2.03
2022-09-01T20:08:09.003Z,2.58
2022-09-01T20:13:43.878Z,2.15
2022-09-01T20:19:21.044Z,2.25
2022-09-01T20:24:38.305Z,2.20
2022-09-01T20:29:55.776Z,2.10
2022-09-01T20:35:12.520Z,3.33
2022-09-01T20:40:24.579Z,3.45
2022-09-01T20:45:28.633Z,3.13
2022-09-01T20:51:07.786Z,3.28
2022-09-01T20:56:13.808Z,2.45
2022-09-01T21:01:36.179Z,3.83
2022-09-01T21:07:03.826Z,3.10
2022-09-01T21:12:28.695Z,2.88
2022-09-01T21:18:04.371Z,4.63
2022-09-01T21:23:06.635Z,2.72
2022-09-01T21:28:08.573Z,2.88
2022-09-01T21:33:10.465Z,2.78
2022-09-01T21:38:12.229Z,2.65
2022-09-01T21:43:28.352Z,3.15
2022-09-01T21:48:30.999Z,2.75
2022-09-01T21:53:33.142Z,2.72
2022-09-01T21:58:38.011Z,2.70
2022-09-01T22:03:39.651Z,3.00
2022-09-01T22:08:41.892Z,3.05
2022-09-01T22:13:43.623Z,2.67
2022-09-01T22:18:45.481Z,2.70
2022-09-01T22:23:47.325Z,2.83
2022-09-01T22:28:49.839Z,2.70
2022-09-01T22:33:51.845Z,2.72
2022-09-01T22:38:54.068Z,2.90
2022-09-01T22:43:56.994Z,3.00
2022-09-01T22:49:00.000Z,3.20
2022-09-01T22:54:01.694Z,4.85
2022-09-01T22:59:08.072Z,3.58
2022-09-01T23:04:12.569Z,3.15
2022-09-01T23:09:14.723Z,4.10
2022-09-01T23:14:18.558Z,3.65
2022-09-01T23:19:21.778Z,3.70
2022-09-01T23:24:23.588Z,3.53
2022-09-01T23:29:25.505Z,3.55
2022-09-01T23:34:27.181Z,3.97
2022-09-01T23:39:28.944Z,4.10
2022-09-01T23:44:31.022Z,4.07
2022-09-01T23:49:32.714Z,4.38
2022-09-01T23:54:35.000Z,5.55
2022-09-01T23:59:36.630Z,4.53
